sensor_id;sensor_type;location;lat;lon;timestamp;temperature;humidity
52381;DHT22;38310;52.796;6.942;2023-04-03T00:01:28;2.10;99.90
52381;DHT22;38310;52.796;6.942;2023-04-03T00:03:54;2.20;99.90
52381;DHT22;38310;52.796;6.942;2023-04-03T00:06:21;2.00;99.90
52381;DHT22;38310;52.796;6.942;2023-04-03T00:08:48;2.00;99.90
52381;DHT22;38310;52.796;6.942;2023-04-03T00:11:14;2.00;99.90
52381;DHT22;38310;52.796;6.942;2023-04-03T00:13:41;1.90;99.90
52381;DHT22;38310;52.796;6.942;2023-04-03T00:16:08;1.90;99.90
52381;DHT22;38310;52.796;6.942;2023-04-03T00:18:34;2.30;99.90
52381;DHT22;38310;52.796;6.942;2023-04-03T00:21:00;1.90;99.90
52381;DHT22;38310;52.796;6.942;2023-04-03T00:23:25;1.90;99.90
52381;DHT22;38310;52.796;6.942;2023-04-03T00:25:51;2.20;99.90
52381;DHT22;38310;52.796;6.942;2023-04-03T00:28:18;1.90;99.90
52381;DHT22;38310;52.796;6.942;2023-04-03T00:30:43;1.90;99.90
52381;DHT22;38310;52.796;6.942;2023-04-03T00:33:12;2.90;99.90
52381;DHT22;38310;52.796;6.942;2023-04-03T00:35:38;2.70;99.90
52381;DHT22;38310;52.796;6.942;2023-04-03T00:38:04;1.80;99.90
52381;DHT22;38310;52.796;6.942;2023-04-03T00:40:35;2.40;99.90
52381;DHT22;38310;52.796;6.942;2023-04-03T00:43:01;2.60;99.90
52381;DHT22;38310;52.796;6.942;2023-04-03T00:45:38;1.70;99.90
52381;DHT22;38310;52.796;6.942;2023-04-03T00:48:06;1.70;99.90
52381;DHT22;38310;52.796;6.942;2023-04-03T00:50:36;2.60;99.90
52381;DHT22;38310;52.796;6.942;2023-04-03T00:53:03;0.10;99.90
52381;DHT22;38310;52.796;6.942;2023-04-03T00:55:30;1.70;99.90
52381;DHT22;38310;52.796;6.942;2023-04-03T00:57:57;2.70;99.90
52381;DHT22;38310;52.796;6.942;2023-04-03T01:00:24;2.70;99.90
52381;DHT22;38310;52.796;6.942;2023-04-03T01:02:51;1.60;99.90
52381;DHT22;38310;52.796;6.942;2023-04-03T01:05:17;1.60;99.90
52381;DHT22;38310;52.796;6.942;2023-04-03T01:07:46;1.60;99.90
52381;DHT22;38310;52.796;6.942;2023-04-03T01:10:14;1.60;99.90
52381;DHT22;38310;52.796;6.942;2023-04-03T01:12:44;1.60;99.90
52381;DHT22;38310;52.796;6.942;2023-04-03T01:15:14;1.70;99.90
52381;DHT22;38310;52.796;6.942;2023-04-03T01:17:48;3.20;99.90
52381;DHT22;38310;52.796;6.942;2023-04-03T01:20:21;1.50;99.90
52381;DHT22;38310;52.796;6.942;2023-04-03T01:25:42;1.50;99.90
52381;DHT22;38310;52.796;6.942;2023-04-03T01:28:12;1.50;99.90
52381;DHT22;38310;52.796;6.942;2023-04-03T01:31:08;1.50;99.90
52381;DHT22;38310;52.796;6.942;2023-04-03T01:33:34;1.50;99.90
52381;DHT22;38310;52.796;6.942;2023-04-03T01:36:01;1.40;99.90
52381;DHT22;38310;52.796;6.942;2023-04-03T01:38:27;1.40;99.90
52381;DHT22;38310;52.796;6.942;2023-04-03T01:40:53;1.40;99.90
52381;DHT22;38310;52.796;6.942;2023-04-03T01:43:18;1.70;99.90
52381;DHT22;38310;52.796;6.942;2023-04-03T01:45:44;1.30;99.90
52381;DHT22;38310;52.796;6.942;2023-04-03T01:48:12;1.30;99.90
52381;DHT22;38310;52.796;6.942;2023-04-03T01:50:38;2.90;99.90
52381;DHT22;38310;52.796;6.942;2023-04-03T01:53:04;1.20;99.90
52381;DHT22;38310;52.796;6.942;2023-04-03T01:55:30;1.80;99.90
52381;DHT22;38310;52.796;6.942;2023-04-03T01:57:56;1.10;99.90
52381;DHT22;38310;52.796;6.942;2023-04-03T02:00:21;1.10;99.90
52381;DHT22;38310;52.796;6.942;2023-04-03T02:02:47;1.10;99.90
52381;DHT22;38310;52.796;6.942;2023-04-03T02:05:13;1.10;99.90
52381;DHT22;38310;52.796;6.942;2023-04-03T02:07:39;1.00;99.90
52381;DHT22;38310;52.796;6.942;2023-04-03T02:10:05;2.30;99.90
52381;DHT22;38310;52.796;6.942;2023-04-03T02:12:31;1.00;99.90
52381;DHT22;38310;52.796;6.942;2023-04-03T02:14:56;1.70;99.90
52381;DHT22;38310;52.796;6.942;2023-04-03T02:17:22;0.90;99.90
52381;DHT22;38310;52.796;6.942;2023-04-03T02:19:48;0.90;99.90
52381;DHT22;38310;52.796;6.942;2023-04-03T02:22:13;0.80;99.90
52381;DHT22;38310;52.796;6.942;2023-04-03T02:24:39;1.60;99.90
52381;DHT22;38310;52.796;6.942;2023-04-03T02:27:06;0.70;99.90
52381;DHT22;38310;52.796;6.942;2023-04-03T02:29:31;1.40;99.90
52381;DHT22;38310;52.796;6.942;2023-04-03T02:31:57;0.70;99.90
52381;DHT22;38310;52.796;6.942;2023-04-03T02:34:23;2.00;99.90
52381;DHT22;38310;52.796;6.942;2023-04-03T02:36:48;1.30;99.90
52381;DHT22;38310;52.796;6.942;2023-04-03T02:39:15;0.70;99.90
52381;DHT22;38310;52.796;6.942;2023-04-03T02:41:41;1.30;99.90
52381;DHT22;38310;52.796;6.942;2023-04-03T02:44:08;1.70;99.90
52381;DHT22;38310;52.796;6.942;2023-04-03T02:46:34;0.80;99.90
52381;DHT22;38310;52.796;6.942;2023-04-03T02:49:00;0.50;99.90
52381;DHT22;38310;52.796;6.942;2023-04-03T02:51:26;0.90;99.90
52381;DHT22;38310;52.796;6.942;2023-04-03T02:53:52;0.40;99.90
52381;DHT22;38310;52.796;6.942;2023-04-03T02:56:18;1.00;99.90
52381;DHT22;38310;52.796;6.942;2023-04-03T02:58:44;0.30;99.90
52381;DHT22;38310;52.796;6.942;2023-04-03T03:01:11;0.30;99.90
52381;DHT22;38310;52.796;6.942;2023-04-03T03:03:37;0.20;99.90
52381;DHT22;38310;52.796;6.942;2023-04-03T03:06:04;0.10;99.90
52381;DHT22;38310;52.796;6.942;2023-04-03T03:08:30;0.20;99.90
52381;DHT22;38310;52.796;6.942;2023-04-03T03:10:56;0.10;99.90
52381;DHT22;38310;52.796;6.942;2023-04-03T03:13:21;1.30;99.90
52381;DHT22;38310;52.796;6.942;2023-04-03T03:15:47;0.10;99.90
52381;DHT22;38310;52.796;6.942;2023-04-03T03:18:13;0.00;99.90
52381;DHT22;38310;52.796;6.942;2023-04-03T03:20:39;0.00;99.90
52381;DHT22;38310;52.796;6.942;2023-04-03T03:23:05;0.00;99.90
52381;DHT22;38310;52.796;6.942;2023-04-03T03:25:31;1.80;99.90
52381;DHT22;38310;52.796;6.942;2023-04-03T03:27:56;0.20;99.90
52381;DHT22;38310;52.796;6.942;2023-04-03T03:30:22;-0.10;99.90
52381;DHT22;38310;52.796;6.942;2023-04-03T03:32:48;-0.20;99.90
52381;DHT22;38310;52.796;6.942;2023-04-03T03:35:13;0.00;99.90
52381;DHT22;38310;52.796;6.942;2023-04-03T03:37:39;1.60;99.90
52381;DHT22;38310;52.796;6.942;2023-04-03T03:40:05;0.00;99.90
52381;DHT22;38310;52.796;6.942;2023-04-03T03:42:31;-0.20;99.90
52381;DHT22;38310;52.796;6.942;2023-04-03T03:44:57;1.40;99.90
52381;DHT22;38310;52.796;6.942;2023-04-03T03:47:23;-0.30;99.90
52381;DHT22;38310;52.796;6.942;2023-04-03T03:49:48;0.50;99.90
52381;DHT22;38310;52.796;6.942;2023-04-03T03:52:14;-0.30;99.90
52381;DHT22;38310;52.796;6.942;2023-04-03T03:54:40;0.90;99.90
52381;DHT22;38310;52.796;6.942;2023-04-03T03:57:05;-0.30;99.90
52381;DHT22;38310;52.796;6.942;2023-04-03T03:59:31;-0.30;99.90
52381;DHT22;38310;52.796;6.942;2023-04-03T04:01:57;0.60;99.90
52381;DHT22;38310;52.796;6.942;2023-04-03T04:04:23;-0.30;99.90
52381;DHT22;38310;52.796;6.942;2023-04-03T04:06:48;1.20;99.90
52381;DHT22;38310;52.796;6.942;2023-04-03T04:09:14;-1.50;99.90
52381;DHT22;38310;52.796;6.942;2023-04-03T04:11:40;0.00;99.90
52381;DHT22;38310;52.796;6.942;2023-04-03T04:14:06;0.60;99.90
52381;DHT22;38310;52.796;6.942;2023-04-03T04:16:32;-0.40;99.90
52381;DHT22;38310;52.796;6.942;2023-04-03T04:18:58;0.80;99.90
52381;DHT22;38310;52.796;6.942;2023-04-03T04:21:23;0.50;99.90
52381;DHT22;38310;52.796;6.942;2023-04-03T04:23:49;-0.40;99.90
52381;DHT22;38310;52.796;6.942;2023-04-03T04:26:15;1.20;99.90
52381;DHT22;38310;52.796;6.942;2023-04-03T04:28:40;-0.40;99.90
52381;DHT22;38310;52.796;6.942;2023-04-03T04:31:06;0.00;99.90
52381;DHT22;38310;52.796;6.942;2023-04-03T04:33:32;-0.40;99.90
52381;DHT22;38310;52.796;6.942;2023-04-03T04:35:58;-0.20;99.90
52381;DHT22;38310;52.796;6.942;2023-04-03T04:38:23;-0.40;99.90
52381;DHT22;38310;52.796;6.942;2023-04-03T04:40:49;-0.40;99.90
52381;DHT22;38310;52.796;6.942;2023-04-03T04:43:15;-0.50;99.90
52381;DHT22;38310;52.796;6.942;2023-04-03T04:45:42;0.90;99.90
52381;DHT22;38310;52.796;6.942;2023-04-03T04:48:07;-0.50;99.90
52381;DHT22;38310;52.796;6.942;2023-04-03T04:50:33;0.40;99.90
52381;DHT22;38310;52.796;6.942;2023-04-03T04:52:59;-0.50;99.90
52381;DHT22;38310;52.796;6.942;2023-04-03T04:55:24;-0.60;99.90
52381;DHT22;38310;52.796;6.942;2023-04-03T04:57:50;-0.50;99.90
52381;DHT22;38310;52.796;6.942;2023-04-03T05:00:17;0.90;99.90
52381;DHT22;38310;52.796;6.942;2023-04-03T05:02:43;-0.50;99.90
52381;DHT22;38310;52.796;6.942;2023-04-03T05:05:09;0.30;99.90
52381;DHT22;38310;52.796;6.942;2023-04-03T05:07:35;-0.60;99.90
52381;DHT22;38310;52.796;6.942;2023-04-03T05:10:01;1.50;99.90
52381;DHT22;38310;52.796;6.942;2023-04-03T05:12:28;-0.40;99.90
52381;DHT22;38310;52.796;6.942;2023-04-03T05:14:54;-0.60;99.90
52381;DHT22;38310;52.796;6.942;2023-04-03T05:17:20;0.50;99.90
52381;DHT22;38310;52.796;6.942;2023-04-03T05:19:45;-0.20;99.90
52381;DHT22;38310;52.796;6.942;2023-04-03T05:22:11;-0.60;99.90
52381;DHT22;38310;52.796;6.942;2023-04-03T05:24:37;0.70;99.90
52381;DHT22;38310;52.796;6.942;2023-04-03T05:27:03;0.10;99.90
52381;DHT22;38310;52.796;6.942;2023-04-03T05:29:29;-0.70;99.90
52381;DHT22;38310;52.796;6.942;2023-04-03T05:31:55;-0.60;99.90
52381;DHT22;38310;52.796;6.942;2023-04-03T05:34:20;1.10;99.90
52381;DHT22;38310;52.796;6.942;2023-04-03T05:36:46;0.60;99.90
52381;DHT22;38310;52.796;6.942;2023-04-03T05:39:12;0.00;99.90
52381;DHT22;38310;52.796;6.942;2023-04-03T05:41:38;-0.60;99.90
52381;DHT22;38310;52.796;6.942;2023-04-03T05:44:03;-0.60;99.90
52381;DHT22;38310;52.796;6.942;2023-04-03T05:46:29;-0.60;99.90
52381;DHT22;38310;52.796;6.942;2023-04-03T05:48:55;1.10;99.90
52381;DHT22;38310;52.796;6.942;2023-04-03T05:51:28;-0.60;99.90
52381;DHT22;38310;52.796;6.942;2023-04-03T05:54:20;0.80;99.90
52381;DHT22;38310;52.796;6.942;2023-04-03T05:56:49;-0.50;99.90
52381;DHT22;38310;52.796;6.942;2023-04-03T05:59:15;-0.50;99.90
52381;DHT22;38310;52.796;6.942;2023-04-03T06:01:41;-0.50;99.90
52381;DHT22;38310;52.796;6.942;2023-04-03T06:04:07;-0.50;99.90
52381;DHT22;38310;52.796;6.942;2023-04-03T06:06:51;-0.40;99.90
52381;DHT22;38310;52.796;6.942;2023-04-03T06:09:19;-0.40;99.90
52381;DHT22;38310;52.796;6.942;2023-04-03T06:11:45;0.50;99.90
52381;DHT22;38310;52.796;6.942;2023-04-03T06:14:11;-0.30;99.90
52381;DHT22;38310;52.796;6.942;2023-04-03T06:16:37;0.00;99.90
52381;DHT22;38310;52.796;6.942;2023-04-03T06:19:05;-0.20;99.90
52381;DHT22;38310;52.796;6.942;2023-04-03T06:21:31;0.00;99.90
52381;DHT22;38310;52.796;6.942;2023-04-03T06:23:57;-0.20;99.90
52381;DHT22;38310;52.796;6.942;2023-04-03T06:26:23;-0.10;99.90
52381;DHT22;38310;52.796;6.942;2023-04-03T06:28:52;0.00;99.90
52381;DHT22;38310;52.796;6.942;2023-04-03T06:31:17;0.00;99.90
52381;DHT22;38310;52.796;6.942;2023-04-03T06:33:43;0.10;99.90
52381;DHT22;38310;52.796;6.942;2023-04-03T06:36:10;0.50;99.90
52381;DHT22;38310;52.796;6.942;2023-04-03T06:38:37;0.30;99.90
52381;DHT22;38310;52.796;6.942;2023-04-03T06:41:03;1.50;99.90
52381;DHT22;38310;52.796;6.942;2023-04-03T06:43:29;0.50;99.90
52381;DHT22;38310;52.796;6.942;2023-04-03T06:45:56;0.50;99.90
52381;DHT22;38310;52.796;6.942;2023-04-03T06:48:22;1.00;99.90
52381;DHT22;38310;52.796;6.942;2023-04-03T06:50:48;0.70;99.90
52381;DHT22;38310;52.796;6.942;2023-04-03T06:53:14;1.50;99.90
52381;DHT22;38310;52.796;6.942;2023-04-03T06:55:40;0.90;99.90
52381;DHT22;38310;52.796;6.942;2023-04-03T06:58:07;1.00;99.90
52381;DHT22;38310;52.796;6.942;2023-04-03T07:00:32;1.10;99.90
52381;DHT22;38310;52.796;6.942;2023-04-03T07:02:59;1.10;99.90
52381;DHT22;38310;52.796;6.942;2023-04-03T07:05:25;1.20;99.90
52381;DHT22;38310;52.796;6.942;2023-04-03T07:07:51;2.20;99.90
52381;DHT22;38310;52.796;6.942;2023-04-03T07:10:18;1.40;99.90
52381;DHT22;38310;52.796;6.942;2023-04-03T07:12:44;1.50;99.90
52381;DHT22;38310;52.796;6.942;2023-04-03T07:15:10;3.20;99.90
52381;DHT22;38310;52.796;6.942;2023-04-03T07:17:37;3.10;99.90
52381;DHT22;38310;52.796;6.942;2023-04-03T07:20:04;1.70;99.90
52381;DHT22;38310;52.796;6.942;2023-04-03T07:22:30;1.80;99.90
52381;DHT22;38310;52.796;6.942;2023-04-03T07:24:55;1.90;99.90
52381;DHT22;38310;52.796;6.942;2023-04-03T07:27:21;2.50;99.90
52381;DHT22;38310;52.796;6.942;2023-04-03T07:29:47;3.60;99.90
52381;DHT22;38310;52.796;6.942;2023-04-03T07:32:14;2.20;99.90
52381;DHT22;38310;52.796;6.942;2023-04-03T07:34:40;2.30;99.90
52381;DHT22;38310;52.796;6.942;2023-04-03T07:37:06;3.90;99.90
52381;DHT22;38310;52.796;6.942;2023-04-03T07:39:32;2.70;99.90
52381;DHT22;38310;52.796;6.942;2023-04-03T07:41:58;2.70;99.90
52381;DHT22;38310;52.796;6.942;2023-04-03T07:44:24;4.50;99.90
52381;DHT22;38310;52.796;6.942;2023-04-03T07:46:50;3.10;99.90
52381;DHT22;38310;52.796;6.942;2023-04-03T07:49:17;3.20;99.90
52381;DHT22;38310;52.796;6.942;2023-04-03T07:51:44;3.30;99.90
52381;DHT22;38310;52.796;6.942;2023-04-03T07:54:10;3.40;99.90
52381;DHT22;38310;52.796;6.942;2023-04-03T07:56:36;3.50;99.90
52381;DHT22;38310;52.796;6.942;2023-04-03T07:59:02;3.70;99.90
52381;DHT22;38310;52.796;6.942;2023-04-03T08:01:28;3.80;99.90
52381;DHT22;38310;52.796;6.942;2023-04-03T08:03:54;3.90;99.90
52381;DHT22;38310;52.796;6.942;2023-04-03T08:06:20;4.00;99.90
52381;DHT22;38310;52.796;6.942;2023-04-03T08:08:45;5.50;99.90
52381;DHT22;38310;52.796;6.942;2023-04-03T08:11:12;4.10;99.90
52381;DHT22;38310;52.796;6.942;2023-04-03T08:13:38;4.20;99.90
52381;DHT22;38310;52.796;6.942;2023-04-03T08:16:09;4.40;99.90
52381;DHT22;38310;52.796;6.942;2023-04-03T08:18:35;4.60;99.90
52381;DHT22;38310;52.796;6.942;2023-04-03T08:21:00;4.70;99.90
52381;DHT22;38310;52.796;6.942;2023-04-03T08:23:26;5.00;99.90
52381;DHT22;38310;52.796;6.942;2023-04-03T08:25:52;5.10;99.90
52381;DHT22;38310;52.796;6.942;2023-04-03T08:28:18;5.30;99.90
52381;DHT22;38310;52.796;6.942;2023-04-03T08:30:44;5.40;99.90
52381;DHT22;38310;52.796;6.942;2023-04-03T08:33:10;5.50;99.90
52381;DHT22;38310;52.796;6.942;2023-04-03T08:35:41;5.60;99.90
52381;DHT22;38310;52.796;6.942;2023-04-03T08:38:08;5.70;99.90
52381;DHT22;38310;52.796;6.942;2023-04-03T08:40:34;5.70;99.90
52381;DHT22;38310;52.796;6.942;2023-04-03T08:43:26;5.70;99.90
52381;DHT22;38310;52.796;6.942;2023-04-03T08:45:55;5.80;99.90
52381;DHT22;38310;52.796;6.942;2023-04-03T08:48:38;6.00;99.90
52381;DHT22;38310;52.796;6.942;2023-04-03T08:51:17;6.10;99.90
52381;DHT22;38310;52.796;6.942;2023-04-03T08:54:06;6.20;99.90
52381;DHT22;38310;52.796;6.942;2023-04-03T08:56:34;6.30;99.90
52381;DHT22;38310;52.796;6.942;2023-04-03T08:59:05;6.40;99.90
52381;DHT22;38310;52.796;6.942;2023-04-03T09:01:40;6.70;99.90
52381;DHT22;38310;52.796;6.942;2023-04-03T09:04:13;6.50;99.90
52381;DHT22;38310;52.796;6.942;2023-04-03T09:06:39;6.60;99.90
52381;DHT22;38310;52.796;6.942;2023-04-03T09:17:09;7.30;99.90
52381;DHT22;38310;52.796;6.942;2023-04-03T09:19:49;7.50;99.90
52381;DHT22;38310;52.796;6.942;2023-04-03T09:22:38;7.50;99.90
52381;DHT22;38310;52.796;6.942;2023-04-03T09:25:16;7.80;99.90
52381;DHT22;38310;52.796;6.942;2023-04-03T09:27:42;7.70;99.90
52381;DHT22;38310;52.796;6.942;2023-04-03T09:30:15;7.90;99.90
52381;DHT22;38310;52.796;6.942;2023-04-03T09:32:44;8.10;99.90
52381;DHT22;38310;52.796;6.942;2023-04-03T09:35:17;8.30;99.90
52381;DHT22;38310;52.796;6.942;2023-04-03T09:37:47;8.30;99.90
52381;DHT22;38310;52.796;6.942;2023-04-03T09:42:52;8.50;99.90
52381;DHT22;38310;52.796;6.942;2023-04-03T09:45:25;8.60;99.90
52381;DHT22;38310;52.796;6.942;2023-04-03T09:53:36;9.10;99.90
52381;DHT22;38310;52.796;6.942;2023-04-03T09:56:19;9.30;99.90
52381;DHT22;38310;52.796;6.942;2023-04-03T09:59:07;9.40;99.90
52381;DHT22;38310;52.796;6.942;2023-04-03T10:01:38;9.50;99.90
52381;DHT22;38310;52.796;6.942;2023-04-03T10:04:19;9.30;99.90
52381;DHT22;38310;52.796;6.942;2023-04-03T10:06:49;9.40;99.60
52381;DHT22;38310;52.796;6.942;2023-04-03T10:14:25;9.50;97.90
52381;DHT22;38310;52.796;6.942;2023-04-03T10:17:02;9.60;99.30
52381;DHT22;38310;52.796;6.942;2023-04-03T10:34:19;10.10;96.90
52381;DHT22;38310;52.796;6.942;2023-04-03T10:43:14;11.00;96.90
52381;DHT22;38310;52.796;6.942;2023-04-03T10:45:56;10.90;94.80
52381;DHT22;38310;52.796;6.942;2023-04-03T10:53:43;11.40;98.00
52381;DHT22;38310;52.796;6.942;2023-04-03T10:56:22;11.80;97.80
52381;DHT22;38310;52.796;6.942;2023-04-03T11:01:42;11.40;94.60
52381;DHT22;38310;52.796;6.942;2023-04-03T11:04:10;11.70;95.60
52381;DHT22;38310;52.796;6.942;2023-04-03T11:06:45;12.00;97.00
52381;DHT22;38310;52.796;6.942;2023-04-03T11:09:30;12.20;95.40
52381;DHT22;38310;52.796;6.942;2023-04-03T11:12:00;12.60;93.30
52381;DHT22;38310;52.796;6.942;2023-04-03T11:17:04;12.80;95.80
52381;DHT22;38310;52.796;6.942;2023-04-03T11:19:42;12.80;93.90
52381;DHT22;38310;52.796;6.942;2023-04-03T11:22:30;12.90;92.20
52381;DHT22;38310;52.796;6.942;2023-04-03T11:27:46;13.20;91.20
52381;DHT22;38310;52.796;6.942;2023-04-03T11:30:27;13.50;92.80
52381;DHT22;38310;52.796;6.942;2023-04-03T11:35:51;13.70;92.10
52381;DHT22;38310;52.796;6.942;2023-04-03T11:38:26;13.60;92.60
52381;DHT22;38310;52.796;6.942;2023-04-03T11:40:54;13.60;91.00
52381;DHT22;38310;52.796;6.942;2023-04-03T11:43:29;13.60;92.40
52381;DHT22;38310;52.796;6.942;2023-04-03T11:50:54;13.60;90.30
52381;DHT22;38310;52.796;6.942;2023-04-03T11:53:40;13.20;89.80
52381;DHT22;38310;52.796;6.942;2023-04-03T12:01:46;13.60;87.00
52381;DHT22;38310;52.796;6.942;2023-04-03T12:04:13;14.30;90.40
52381;DHT22;38310;52.796;6.942;2023-04-03T12:09:24;15.30;90.40
52381;DHT22;38310;52.796;6.942;2023-04-03T12:11:52;15.20;86.40
52381;DHT22;38310;52.796;6.942;2023-04-03T12:14:20;15.20;89.40
52381;DHT22;38310;52.796;6.942;2023-04-03T12:16:47;15.50;89.10
52381;DHT22;38310;52.796;6.942;2023-04-03T12:35:47;15.20;81.30
52381;DHT22;38310;52.796;6.942;2023-04-03T12:46:45;15.90;80.90
52381;DHT22;38310;52.796;6.942;2023-04-03T12:49:37;15.70;80.40
52381;DHT22;38310;52.796;6.942;2023-04-03T12:54:50;15.30;79.40
52381;DHT22;38310;52.796;6.942;2023-04-03T12:57:18;15.70;82.80
52381;DHT22;38310;52.796;6.942;2023-04-03T12:59:44;16.30;84.00
52381;DHT22;38310;52.796;6.942;2023-04-03T13:02:32;16.10;82.90
52381;DHT22;38310;52.796;6.942;2023-04-03T13:05:08;16.70;83.00
52381;DHT22;38310;52.796;6.942;2023-04-03T13:07:37;17.10;82.30
52381;DHT22;38310;52.796;6.942;2023-04-03T13:12:55;17.40;81.30
52381;DHT22;38310;52.796;6.942;2023-04-03T13:15:29;17.30;77.30
52381;DHT22;38310;52.796;6.942;2023-04-03T13:17:56;17.30;78.60
52381;DHT22;38310;52.796;6.942;2023-04-03T13:20:26;17.20;79.20
52381;DHT22;38310;52.796;6.942;2023-04-03T13:23:04;16.80;77.80
52381;DHT22;38310;52.796;6.942;2023-04-03T13:25:36;17.00;78.10
52381;DHT22;38310;52.796;6.942;2023-04-03T13:28:05;17.60;77.80
52381;DHT22;38310;52.796;6.942;2023-04-03T13:30:34;17.50;79.30
52381;DHT22;38310;52.796;6.942;2023-04-03T13:33:04;17.50;77.00
52381;DHT22;38310;52.796;6.942;2023-04-03T13:35:37;17.60;77.10
52381;DHT22;38310;52.796;6.942;2023-04-03T13:41:26;17.50;75.40
52381;DHT22;38310;52.796;6.942;2023-04-03T13:43:49;16.60;72.30
52381;DHT22;38310;52.796;6.942;2023-04-03T13:48:46;16.40;76.00
52381;DHT22;38310;52.796;6.942;2023-04-03T13:53:56;16.60;77.10
52381;DHT22;38310;52.796;6.942;2023-04-03T13:56:33;17.20;76.00
52381;DHT22;38310;52.796;6.942;2023-04-03T13:59:21;16.60;73.30
52381;DHT22;38310;52.796;6.942;2023-04-03T14:04:43;16.60;74.60
52381;DHT22;38310;52.796;6.942;2023-04-03T14:07:11;16.10;73.30
52381;DHT22;38310;52.796;6.942;2023-04-03T14:09:36;16.20;74.10
52381;DHT22;38310;52.796;6.942;2023-04-03T14:12:07;16.20;75.70
52381;DHT22;38310;52.796;6.942;2023-04-03T14:14:35;16.50;75.50
52381;DHT22;38310;52.796;6.942;2023-04-03T14:17:10;16.40;73.80
52381;DHT22;38310;52.796;6.942;2023-04-03T14:19:38;16.40;73.50
52381;DHT22;38310;52.796;6.942;2023-04-03T14:22:14;16.10;75.50
52381;DHT22;38310;52.796;6.942;2023-04-03T14:24:41;15.70;74.10
52381;DHT22;38310;52.796;6.942;2023-04-03T14:27:18;15.50;74.40
52381;DHT22;38310;52.796;6.942;2023-04-03T14:29:44;15.10;72.30
52381;DHT22;38310;52.796;6.942;2023-04-03T14:32:16;15.60;75.70
52381;DHT22;38310;52.796;6.942;2023-04-03T14:34:42;15.20;73.10
52381;DHT22;38310;52.796;6.942;2023-04-03T14:37:15;14.80;73.60
52381;DHT22;38310;52.796;6.942;2023-04-03T14:39:41;14.80;73.50
52381;DHT22;38310;52.796;6.942;2023-04-03T14:42:13;14.80;74.70
52381;DHT22;38310;52.796;6.942;2023-04-03T14:44:39;14.60;75.30
52381;DHT22;38310;52.796;6.942;2023-04-03T14:47:07;14.70;76.30
52381;DHT22;38310;52.796;6.942;2023-04-03T14:49:34;14.40;76.20
52381;DHT22;38310;52.796;6.942;2023-04-03T14:52:00;14.20;75.50
52381;DHT22;38310;52.796;6.942;2023-04-03T14:54:26;14.10;75.90
52381;DHT22;38310;52.796;6.942;2023-04-03T14:56:54;14.00;76.30
52381;DHT22;38310;52.796;6.942;2023-04-03T14:59:21;13.70;74.80
52381;DHT22;38310;52.796;6.942;2023-04-03T15:01:48;13.50;76.20
52381;DHT22;38310;52.796;6.942;2023-04-03T15:04:15;13.30;76.80
52381;DHT22;38310;52.796;6.942;2023-04-03T15:06:42;13.30;76.60
52381;DHT22;38310;52.796;6.942;2023-04-03T15:09:25;13.00;76.10
52381;DHT22;38310;52.796;6.942;2023-04-03T15:11:51;12.60;75.00
52381;DHT22;38310;52.796;6.942;2023-04-03T15:14:18;12.40;75.30
52381;DHT22;38310;52.796;6.942;2023-04-03T15:16:44;12.20;76.50
52381;DHT22;38310;52.796;6.942;2023-04-03T15:19:10;12.10;77.10
52381;DHT22;38310;52.796;6.942;2023-04-03T15:21:37;12.10;77.20
52381;DHT22;38310;52.796;6.942;2023-04-03T15:24:03;11.90;76.40
52381;DHT22;38310;52.796;6.942;2023-04-03T15:26:29;11.80;77.50
52381;DHT22;38310;52.796;6.942;2023-04-03T15:28:55;11.80;78.10
52381;DHT22;38310;52.796;6.942;2023-04-03T15:31:21;11.70;78.20
52381;DHT22;38310;52.796;6.942;2023-04-03T15:33:47;11.50;77.90
52381;DHT22;38310;52.796;6.942;2023-04-03T15:36:12;12.00;79.50
52381;DHT22;38310;52.796;6.942;2023-04-03T15:38:38;11.30;79.40
52381;DHT22;38310;52.796;6.942;2023-04-03T15:41:04;11.20;78.90
52381;DHT22;38310;52.796;6.942;2023-04-03T15:43:30;11.10;78.90
52381;DHT22;38310;52.796;6.942;2023-04-03T15:45:58;11.00;79.10
52381;DHT22;38310;52.796;6.942;2023-04-03T15:48:25;11.00;80.00
52381;DHT22;38310;52.796;6.942;2023-04-03T15:50:51;10.80;80.00
52381;DHT22;38310;52.796;6.942;2023-04-03T15:53:17;10.70;80.10
52381;DHT22;38310;52.796;6.942;2023-04-03T15:55:43;10.60;80.10
52381;DHT22;38310;52.796;6.942;2023-04-03T15:58:08;10.50;80.30
52381;DHT22;38310;52.796;6.942;2023-04-03T16:00:35;10.40;79.90
52381;DHT22;38310;52.796;6.942;2023-04-03T16:03:07;10.40;79.80
52381;DHT22;38310;52.796;6.942;2023-04-03T16:05:35;10.30;80.10
52381;DHT22;38310;52.796;6.942;2023-04-03T16:08:02;10.20;81.10
52381;DHT22;38310;52.796;6.942;2023-04-03T16:10:28;10.10;80.40
52381;DHT22;38310;52.796;6.942;2023-04-03T16:12:54;10.10;80.30
52381;DHT22;38310;52.796;6.942;2023-04-03T16:15:20;10.00;80.10
52381;DHT22;38310;52.796;6.942;2023-04-03T16:17:46;9.90;81.10
52381;DHT22;38310;52.796;6.942;2023-04-03T16:20:14;9.90;81.40
52381;DHT22;38310;52.796;6.942;2023-04-03T16:22:40;9.80;82.40
52381;DHT22;38310;52.796;6.942;2023-04-03T16:25:07;9.70;81.40
52381;DHT22;38310;52.796;6.942;2023-04-03T16:27:33;9.80;82.30
52381;DHT22;38310;52.796;6.942;2023-04-03T16:29:59;9.70;81.60
52381;DHT22;38310;52.796;6.942;2023-04-03T16:32:28;9.70;82.70
52381;DHT22;38310;52.796;6.942;2023-04-03T16:34:54;9.60;81.90
52381;DHT22;38310;52.796;6.942;2023-04-03T16:37:21;9.50;83.00
52381;DHT22;38310;52.796;6.942;2023-04-03T16:39:46;9.40;82.20
52381;DHT22;38310;52.796;6.942;2023-04-03T16:42:12;9.40;82.20
52381;DHT22;38310;52.796;6.942;2023-04-03T16:44:38;9.30;81.90
52381;DHT22;38310;52.796;6.942;2023-04-03T16:47:05;9.20;82.80
52381;DHT22;38310;52.796;6.942;2023-04-03T16:49:31;9.10;83.40
52381;DHT22;38310;52.796;6.942;2023-04-03T16:52:04;9.50;84.50
52381;DHT22;38310;52.796;6.942;2023-04-03T16:54:31;9.10;85.00
52381;DHT22;38310;52.796;6.942;2023-04-03T16:56:57;9.00;84.50
52381;DHT22;38310;52.796;6.942;2023-04-03T16:59:23;9.00;85.00
52381;DHT22;38310;52.796;6.942;2023-04-03T17:01:49;8.90;84.20
52381;DHT22;38310;52.796;6.942;2023-04-03T17:04:14;8.80;84.10
52381;DHT22;38310;52.796;6.942;2023-04-03T17:06:40;8.80;84.90
52381;DHT22;38310;52.796;6.942;2023-04-03T17:09:07;8.80;84.50
52381;DHT22;38310;52.796;6.942;2023-04-03T17:11:33;8.80;84.90
52381;DHT22;38310;52.796;6.942;2023-04-03T17:13:59;8.70;86.40
52381;DHT22;38310;52.796;6.942;2023-04-03T17:16:25;8.70;86.80
52381;DHT22;38310;52.796;6.942;2023-04-03T17:18:52;8.60;87.10
52381;DHT22;38310;52.796;6.942;2023-04-03T17:21:18;8.50;87.30
52381;DHT22;38310;52.796;6.942;2023-04-03T17:23:47;8.50;89.80
52381;DHT22;38310;52.796;6.942;2023-04-03T17:26:14;8.50;89.20
52381;DHT22;38310;52.796;6.942;2023-04-03T17:28:40;8.40;88.90
52381;DHT22;38310;52.796;6.942;2023-04-03T17:31:07;8.40;89.70
52381;DHT22;38310;52.796;6.942;2023-04-03T17:33:33;8.30;89.80
52381;DHT22;38310;52.796;6.942;2023-04-03T17:36:00;8.20;89.70
52381;DHT22;38310;52.796;6.942;2023-04-03T17:38:29;8.20;90.20
52381;DHT22;38310;52.796;6.942;2023-04-03T17:41:00;8.20;90.70
52381;DHT22;38310;52.796;6.942;2023-04-03T17:43:27;8.10;90.80